الصفحة الرئيسية
METAR-TAF:

METAR-TAF

مطار :

مدلاند, تكساس, الولايات المتحدة

دائرة عرض: 31-56-52N, خط طول: 102-12-31W, ارتفاع: 875 متر

مراقبة الطقس الحالي

تاريخ ووقت الإصدار 44 دقيقة قبل الساعة 20:53UTC
ريح 9 عقدة من الجنوب/الجنوب الغربي, الاتجاه يتراوح بين الجنوب/الجنوب الشرقي و الجنوب الغربي
درجة الحرارة 17°درجة مئوية
الرطوبة 27%
ضغط 1023 hPa
الرؤية: 16.1 كم
سماء صافية

METAR: KMAF 182053Z 20009KT 150V220 10SM CLR 17/M02 A3020 RMK AO2 SLP208 T01721017 58027

زمن: 16:37 (21:37 UTC)

توقعات

تاريخ ووقت الإصدار 4ساعات و 17 دقيقة قبل الساعة 17:20UTC
التوقعات صالحة من18 الساعة 18 UTC إلى 19 الساعة 18 UTC
ريح 9 عقدة من الشرق/الجنوب الشرقي
الرؤية: 10 كم
غيوم متفرقة على ارتفاع 20000 قدم
من 19 الساعة 0900 UTC
ريح 8 عقدة من الجنوب
الرؤية: 10 كم
غيوم قليلة على ارتفاع 20000 قدم

TAF: KMAF 181720Z 1818/1918 12009KT P6SM SCT200 FM190900 17008KT P6SM FEW200

أرصاد الطقس والتوقعات من أكثر من 4000 مطار (تقارير الطقس للمطار METAR والتنبؤ بالطقس بالمطارTAF).

المحطات المتاحة هي النقط الصفراء والحمراء على الخريطة.

حرك المؤشر فوق النقطة لمعرفة اسم المحطة.

ثم انقر لمعرفة أرصاد وتوقعات الطقس.

لتغيير الخارطة: اضغط على الأزرار الخضراء مع رمز الصليب الأسود للتكبير. على الزر الأخضر مع شرطة للتصغير، أو على الأسهم الخضراء للخرائط المجاورة.


METAR-TAF: